Time;durP1;ratioP1;P1;durP2;ratioP2;P2;SDS_P1;SDS_P2;PMS_P1;PMS_P2;Temp;Humidity;BMP_temperature;BMP_pressure;BME280_temperature;BME280_humidity;BME280_pressure;Samples;Min_cycle;Max_cycle;Signal;HPM_P1;HPM_P2
2023/05/31 00:02:04;;;;;;;8.18;5.30;;;;;;;26.15;42.31;99877.81;4259416;33;34369;-65
2023/05/31 00:04:32;;;;;;;8.30;5.35;;;;;;;26.14;42.34;99879.72;4260698;33;33736;-65
2023/05/31 00:07:00;;;;;;;7.80;5.10;;;;;;;26.14;42.34;99879.72;4260709;33;34007;-64
2023/05/31 00:09:27;;;;;;;10.07;5.65;;;;;;;26.14;42.32;99878.87;4260570;33;34304;-64
2023/05/31 00:11:55;;;;;;;10.38;5.10;;;;;;;26.12;42.36;99868.22;4260598;33;33412;-65
2023/05/31 00:14:22;;;;;;;7.53;4.90;;;;;;;26.13;42.33;99877.25;4260648;33;33853;-64
2023/05/31 00:16:50;;;;;;;10.57;5.32;;;;;;;26.12;42.32;99868.22;4260846;33;34142;-66
2023/05/31 00:19:20;;;;;;;8.90;5.30;;;;;;;26.13;42.33;99880.78;4252554;33;34068;-66
2023/05/31 00:21:48;;;;;;;8.82;5.20;;;;;;;26.12;42.31;99870.94;4246441;33;32843;-65
2023/05/31 00:24:16;;;;;;;7.47;5.00;;;;;;;26.12;42.30;99875.59;4246179;33;34614;-65
2023/05/31 00:26:44;;;;;;;6.50;4.87;;;;;;;26.11;42.27;99863.81;4246360;33;33843;-65
2023/05/31 00:29:11;;;;;;;8.43;5.30;;;;;;;26.11;42.32;99865.69;4246267;33;34084;-66
2023/05/31 00:31:40;;;;;;;7.78;4.82;;;;;;;26.11;42.25;99868.44;4246331;33;34654;-65
2023/05/31 00:34:10;;;;;;;;;;;;;;;26.10;42.24;99873.06;4246686;33;33954;-70
2023/05/31 00:36:38;;;;;;;7.65;5.32;;;;;;;26.20;42.04;99864.25;4245994;33;35221;-68
2023/05/31 00:39:05;;;;;;;7.82;5.37;;;;;;;26.13;42.18;99872.59;4246113;33;34991;-68
2023/05/31 00:41:33;;;;;;;8.70;5.37;;;;;;;26.10;42.32;99866.78;4246277;33;33513;-69
2023/05/31 00:44:01;;;;;;;10.63;5.18;;;;;;;26.08;42.34;99869.75;4246390;33;34653;-70
2023/05/31 00:46:34;;;;;;;7.53;4.75;;;;;;;26.08;42.35;99874.41;4246132;33;33851;-68
2023/05/31 00:49:02;;;;;;;9.32;5.50;;;;;;;26.07;42.40;99876.31;4245091;33;34194;-67
2023/05/31 00:51:31;;;;;;;6.83;4.43;;;;;;;26.08;42.35;99864.28;4246486;33;33597;-68
2023/05/31 00:53:59;;;;;;;7.68;5.00;;;;;;;26.10;42.32;99866.78;4245063;33;34595;-68
2023/05/31 00:56:27;;;;;;;8.05;4.68;;;;;;;26.08;42.34;99868.94;4244889;33;34028;-68
2023/05/31 00:58:56;;;;;;;12.45;5.45;;;;;;;26.08;42.31;99864.28;4244738;33;34017;-68
2023/05/31 01:01:26;;;;;;;10.55;5.07;;;;;;;26.08;42.32;99867.03;4233507;33;33780;-67
2023/05/31 01:03:55;;;;;;;8.15;5.00;;;;;;;26.09;42.29;99863.22;4246192;33;33808;-68
2023/05/31 01:06:30;;;;;;;9.18;4.93;;;;;;;26.08;42.28;99858.00;4245944;33;34036;-68
2023/05/31 01:09:04;;;;;;;7.93;5.15;;;;;;;26.08;42.26;99858.00;4246215;33;34754;-67
2023/05/31 01:11:44;;;;;;;8.93;5.05;;;;;;;26.07;42.29;99864.53;4233779;33;34154;-67
2023/05/31 01:14:14;;;;;;;7.75;4.68;;;;;;;26.09;42.24;99867.84;4246135;33;33961;-67
2023/05/31 01:16:47;;;;;;;7.47;4.87;;;;;;;26.06;42.25;99860.94;4246070;33;34899;-68
2023/05/31 01:19:20;;;;;;;8.75;5.10;;;;;;;26.07;42.27;99861.81;4252158;33;34944;-69
2023/05/31 01:22:03;;;;;;;9.43;4.80;;;;;;;26.05;42.20;99862.03;4247466;33;33149;-68
2023/05/31 01:25:08;;;;;;;11.20;4.82;;;;;;;26.07;42.21;99859.91;4260121;33;34820;-68
2023/05/31 01:27:37;;;;;;;7.45;4.80;;;;;;;26.08;42.15;99861.56;4260143;33;34721;-67
2023/05/31 01:30:05;;;;;;;6.60;4.70;;;;;;;26.04;42.17;99859.56;4247408;33;33743;-68
2023/05/31 01:32:33;;;;;;;7.70;5.12;;;;;;;26.03;42.19;99858.72;4260227;33;34389;-68
2023/05/31 01:35:02;;;;;;;8.70;4.87;;;;;;;26.03;42.19;99861.47;4247467;33;33688;-67
2023/05/31 01:37:30;;;;;;;7.70;4.40;;;;;;;26.04;42.20;99860.38;4260181;33;34731;-68
2023/05/31 01:39:58;;;;;;;11.05;5.25;;;;;;;26.03;42.18;99858.72;4259864;33;34168;-68
2023/05/31 01:42:26;;;;;;;7.80;5.07;;;;;;;26.03;42.19;99861.47;4247508;33;34422;-68
2023/05/31 01:44:53;;;;;;;7.43;4.78;;;;;;;26.02;42.18;99865.28;4258970;33;33684;-67
2023/05/31 01:47:21;;;;;;;7.30;4.70;;;;;;;26.02;42.17;99854.34;4246228;33;34108;-69
2023/05/31 01:49:49;;;;;;;9.52;4.70;;;;;;;26.02;42.13;99857.06;4258936;33;34790;-68
2023/05/31 01:52:17;;;;;;;7.05;4.65;;;;;;;26.03;42.12;99852.44;4247084;33;33665;-67
2023/05/31 01:54:44;;;;;;;7.12;4.65;;;;;;;26.02;42.11;99858.94;4259912;33;34267;-68
2023/05/31 01:57:12;;;;;;;7.20;4.60;;;;;;;26.02;42.09;99853.47;4258781;33;33582;-67
2023/05/31 01:59:40;;;;;;;7.72;4.55;;;;;;;26.02;42.05;99853.47;4258978;33;33937;-68
2023/05/31 02:02:08;;;;;;;7.05;4.53;;;;;;;26.02;42.01;99850.75;4247037;33;34488;-68
2023/05/31 02:04:36;;;;;;;7.75;4.55;;;;;;;26.01;41.88;99849.91;4259037;33;34834;-68
2023/05/31 02:07:04;;;;;;;7.35;4.45;;;;;;;26.01;41.90;99851.81;4259009;33;33893;-66
2023/05/31 02:09:31;;;;;;;8.68;4.20;;;;;;;26.02;41.97;99848.87;4259739;33;34057;-67
2023/05/31 02:11:59;;;;;;;7.53;4.20;;;;;;;26.01;41.98;99854.56;4259861;33;33187;-67
2023/05/31 02:14:26;;;;;;;7.30;4.57;;;;;;;26.01;41.95;99854.56;4259928;33;33782;-67
2023/05/31 02:16:55;;;;;;;6.97;4.37;;;;;;;26.02;41.95;99864.41;4259590;33;33798;-68
2023/05/31 02:19:25;;;;;;;7.07;3.85;;;;;;;26.01;41.89;99855.38;4264197;33;34229;-68
2023/05/31 02:21:52;;;;;;;;;;;;;;;26.01;41.89;99862.75;4260145;33;33549;-67
2023/05/31 02:24:20;;;;;;;7.07;4.22;;;;;;;26.10;41.69;99867.59;4259697;33;34175;-68
2023/05/31 02:26:47;;;;;;;8.73;4.43;;;;;;;26.02;41.78;99865.28;4259740;33;34749;-68
2023/05/31 02:29:15;;;;;;;7.93;4.55;;;;;;;26.00;41.82;99869.31;4259984;33;34192;-65
2023/05/31 02:31:45;;;;;;;7.50;4.40;;;;;;;25.98;41.83;99866.81;4259512;33;33570;-65
2023/05/31 02:34:13;;;;;;;7.10;4.03;;;;;;;25.98;41.82;99864.09;4259709;33;33937;-67
2023/05/31 02:36:41;;;;;;;6.37;3.92;;;;;;;25.98;41.80;99861.34;4259635;33;34484;-68
2023/05/31 02:39:11;;;;;;;6.82;4.22;;;;;;;25.97;41.80;99862.41;4259403;33;33812;-67
2023/05/31 02:41:41;;;;;;;9.80;4.95;;;;;;;25.97;41.77;99865.13;4259491;33;34380;-65
2023/05/31 02:44:08;;;;;;;8.07;4.50;;;;;;;25.98;41.73;99872.28;4259451;33;33831;-68
2023/05/31 02:46:38;;;;;;;7.30;4.57;;;;;;;25.98;41.75;99872.28;4259769;33;34039;-64
2023/05/31 02:49:07;;;;;;;9.43;4.32;;;;;;;25.99;41.72;99876.69;4258218;33;33881;-65
2023/05/31 02:51:35;;;;;;;7.22;4.00;;;;;;;25.98;41.69;99880.50;4258303;33;33728;-64
2023/05/31 02:54:04;;;;;;;10.35;4.50;;;;;;;25.97;41.68;99876.06;4259603;33;33845;-65
2023/05/31 02:56:32;;;;;;;10.40;3.90;;;;;;;25.98;41.61;99875.03;4259275;33;33948;-65
2023/05/31 02:59:01;;;;;;;9.50;4.65;;;;;;;25.97;41.60;99881.53;4259756;33;34355;-65
2023/05/31 03:01:29;;;;;;;6.30;4.20;;;;;;;25.97;41.61;99880.72;4261259;33;34378;-65
2023/05/31 03:03:57;;;;;;;6.82;4.30;;;;;;;25.96;41.56;99879.87;4261319;33;34598;-64
2023/05/31 03:06:26;;;;;;;7.90;3.62;;;;;;;25.95;41.57;99881.78;4261064;33;34135;-64
2023/05/31 03:08:53;;;;;;;8.65;4.10;;;;;;;25.95;41.54;99879.06;4260930;33;35056;-67
2023/05/31 03:11:21;;;;;;;11.02;4.75;;;;;;;25.96;41.51;99885.34;4261338;33;33646;-68
2023/05/31 03:13:49;;;;;;;6.80;4.00;;;;;;;25.97;41.55;99886.19;4248230;33;33538;-69
2023/05/31 03:16:20;;;;;;;6.60;4.18;;;;;;;25.97;41.52;99886.19;4261261;33;33738;-68
2023/05/31 03:18:48;;;;;;;7.40;3.67;;;;;;;25.95;41.50;99878.22;4256292;33;34822;-68
2023/05/31 03:21:16;;;;;;;6.80;3.72;;;;;;;25.96;41.50;99890.81;4246577;33;33648;-68
2023/05/31 03:23:44;;;;;;;8.07;4.10;;;;;;;25.96;41.49;99888.09;4246793;33;33756;-68
2023/05/31 03:26:11;;;;;;;8.07;3.70;;;;;;;25.95;41.49;99887.25;4246826;33;34728;-69
2023/05/31 03:28:39;;;;;;;8.02;4.10;;;;;;;25.95;41.46;99892.72;4246716;33;34166;-67
2023/05/31 03:31:08;;;;;;;9.15;4.07;;;;;;;25.95;41.42;99897.38;4246752;33;33336;-68
2023/05/31 03:33:36;;;;;;;6.80;3.85;;;;;;;25.94;41.42;99902.00;4246698;33;33982;-64
2023/05/31 03:36:04;;;;;;;6.12;3.75;;;;;;;25.94;41.41;99893.81;4246675;33;34696;-65
2023/05/31 03:38:32;;;;;;;10.45;4.25;;;;;;;25.95;41.37;99900.09;4246984;33;34864;-65
2023/05/31 03:41:00;;;;;;;6.62;4.03;;;;;;;25.95;41.36;99897.38;4246462;33;33759;-64
2023/05/31 03:43:28;;;;;;;6.50;4.03;;;;;;;25.96;41.37;99904.50;4246882;33;35324;-64
2023/05/31 03:46:00;;;;;;;7.30;4.35;;;;;;;25.94;41.37;99902.00;4246889;33;33782;-65
2023/05/31 03:48:28;;;;;;;7.30;3.83;;;;;;;25.94;41.37;99901.19;4246639;33;34744;-65
2023/05/31 03:50:56;;;;;;;8.63;3.85;;;;;;;25.94;41.36;99891.06;4246894;33;33669;-64
2023/05/31 03:53:23;;;;;;;7.62;3.75;;;;;;;25.94;41.33;99903.91;4245639;33;33406;-65
2023/05/31 03:55:51;;;;;;;6.95;3.78;;;;;;;25.94;41.36;99901.19;4246318;33;34924;-64
2023/05/31 03:58:21;;;;;;;8.50;4.03;;;;;;;25.93;41.35;99910.47;4246962;33;34969;-64
2023/05/31 04:00:48;;;;;;;7.55;4.10;;;;;;;25.94;41.33;99895.72;4246674;33;33226;-64
2023/05/31 04:03:17;;;;;;;6.03;3.70;;;;;;;25.94;41.31;99912.13;4254554;33;34857;-64
2023/05/31 04:05:45;;;;;;;5.67;3.47;;;;;;;25.94;41.32;99914.84;4259174;33;33389;-64
2023/05/31 04:08:13;;;;;;;8.80;4.32;;;;;;;25.94;41.27;99926.63;4246679;33;34215;-65
2023/05/31 04:10:41;;;;;;;7.25;3.95;;;;;;;25.93;41.27;99924.13;4250476;33;34737;-65
2023/05/31 04:13:08;;;;;;;9.07;3.95;;;;;;;25.93;41.27;99915.94;4260822;33;34004;-65
2023/05/31 04:15:36;;;;;;;6.97;3.83;;;;;;;25.94;41.22;99928.53;4260589;33;33645;-65
2023/05/31 04:18:04;;;;;;;6.95;3.95;;;;;;;25.93;41.26;99924.97;4260698;33;34850;-68
2023/05/31 04:20:32;;;;;;;8.68;4.07;;;;;;;25.93;41.26;99919.50;4260772;33;34277;-68
2023/05/31 04:23:00;;;;;;;9.10;3.95;;;;;;;25.92;41.27;99926.00;4262794;33;33958;-67
2023/05/31 04:25:28;;;;;;;5.82;3.37;;;;;;;25.92;41.26;99928.75;4259517;33;33976;-64
2023/05/31 04:27:56;;;;;;;8.93;4.07;;;;;;;25.91;41.26;99920.78;4260726;33;34710;-65
2023/05/31 04:30:24;;;;;;;6.10;3.40;;;;;;;25.92;41.26;99928.75;4260606;33;34128;-65
2023/05/31 04:32:52;;;;;;;9.90;3.67;;;;;;;25.91;41.26;99934.47;4260479;33;33477;-65
2023/05/31 04:35:20;;;;;;;7.18;4.07;;;;;;;25.92;41.25;99931.47;4260666;33;34083;-68
2023/05/31 04:37:52;;;;;;;8.95;3.25;;;;;;;25.92;41.22;99934.22;4260720;33;34908;-68
2023/05/31 04:40:20;;;;;;;6.80;3.53;;;;;;;25.91;41.22;99929.81;4260624;33;33638;-68
2023/05/31 04:42:48;;;;;;;9.75;3.65;;;;;;;25.92;41.17;99922.44;4260699;33;33844;-68
2023/05/31 04:45:17;;;;;;;6.90;3.80;;;;;;;25.91;41.07;99929.81;4259354;33;34418;-68
2023/05/31 04:47:46;;;;;;;8.02;3.30;;;;;;;25.92;41.00;99923.28;4260435;33;34766;-68
2023/05/31 04:50:14;;;;;;;10.23;4.45;;;;;;;25.92;40.95;99931.47;4260325;33;33797;-68
2023/05/31 04:52:42;;;;;;;6.53;3.55;;;;;;;25.91;40.86;99938.03;4260425;33;34597;-68
2023/05/31 04:55:11;;;;;;;7.80;4.10;;;;;;;25.92;40.77;99944.31;4260471;33;33782;-68
2023/05/31 04:57:38;;;;;;;7.18;3.70;;;;;;;25.92;40.75;99938.84;4260465;33;34159;-68
2023/05/31 05:00:11;;;;;;;4.82;3.03;;;;;;;25.90;40.74;99946.47;4260364;33;33526;-69
2023/05/31 05:02:43;;;;;;;7.32;3.40;;;;;;;25.91;40.73;99943.47;4260497;33;33655;-67
2023/05/31 05:05:11;;;;;;;6.18;3.60;;;;;;;25.92;40.65;99952.50;4260545;33;34958;-68
2023/05/31 05:07:38;;;;;;;5.35;3.35;;;;;;;25.90;40.59;99943.75;4260493;33;34639;-67
2023/05/31 05:10:06;;;;;;;6.95;3.60;;;;;;;25.89;40.63;99948.37;4260590;33;34350;-68
2023/05/31 05:12:34;;;;;;;5.90;3.20;;;;;;;25.88;40.67;99946.72;4260228;33;33881;-68
2023/05/31 05:15:02;;;;;;;12.45;3.87;;;;;;;25.88;40.66;99943.97;4260553;33;34188;-68
2023/05/31 05:17:30;;;;;;;10.43;4.10;;;;;;;25.89;40.63;99944.81;4260408;33;34143;-70
2023/05/31 05:19:57;;;;;;;11.05;4.40;;;;;;;25.88;40.65;99943.13;4260134;33;33357;-70
2023/05/31 05:22:25;;;;;;;6.07;3.45;;;;;;;25.87;40.52;99949.66;4260180;33;33909;-69
2023/05/31 05:24:53;;;;;;;9.52;4.28;;;;;;;25.86;40.25;99940.66;4260459;33;33781;-69
2023/05/31 05:27:21;;;;;;;11.88;3.72;;;;;;;25.85;40.03;99943.62;4260346;33;34684;-68
2023/05/31 05:29:49;;;;;;;7.50;3.97;;;;;;;25.84;39.79;99945.53;4260177;33;33579;-69
2023/05/31 05:32:17;;;;;;;7.00;3.35;;;;;;;25.83;39.77;99945.75;4260146;33;34673;-70
2023/05/31 05:34:45;;;;;;;9.35;4.20;;;;;;;25.81;39.85;99946.00;4260018;33;34019;-70
2023/05/31 05:37:13;;;;;;;6.32;3.40;;;;;;;25.81;39.94;99947.91;4260407;33;34658;-70
2023/05/31 05:39:40;;;;;;;7.93;3.92;;;;;;;25.81;39.72;99945.16;4260107;33;34461;-70
2023/05/31 05:42:09;;;;;;;6.72;3.53;;;;;;;25.79;39.54;99948.16;4260029;33;34775;-69
2023/05/31 05:44:37;;;;;;;9.18;3.60;;;;;;;25.78;39.38;99940.16;4260077;33;34695;-69
2023/05/31 05:47:05;;;;;;;9.07;4.30;;;;;;;25.77;39.23;99952.19;4260061;33;34939;-70
2023/05/31 05:49:33;;;;;;;7.35;3.85;;;;;;;25.77;39.18;99946.72;4260127;33;33913;-69
2023/05/31 05:52:02;;;;;;;8.18;3.90;;;;;;;25.76;39.06;99953.25;4260240;33;33864;-68
2023/05/31 05:54:30;;;;;;;6.60;3.50;;;;;;;25.77;39.17;99957.66;4260023;33;34151;-69
2023/05/31 05:56:58;;;;;;;10.05;4.12;;;;;;;25.74;39.19;99958.94;4259879;33;34834;-68
2023/05/31 05:59:26;;;;;;;11.20;4.45;;;;;;;25.74;39.11;99953.47;4254328;33;33557;-68
2023/05/31 06:01:53;;;;;;;7.97;3.75;;;;;;;25.74;39.01;99950.75;4246003;33;33471;-68
2023/05/31 06:04:22;;;;;;;6.93;3.87;;;;;;;25.73;38.99;99954.53;4245957;33;33707;-68
2023/05/31 06:06:50;;;;;;;7.43;3.50;;;;;;;25.74;38.93;99958.06;4245832;33;34872;-68
2023/05/31 06:09:18;;;;;;;7.15;3.53;;;;;;;25.73;38.85;99961.88;4245709;33;33837;-68
2023/05/31 06:11:46;;;;;;;6.90;3.50;;;;;;;25.70;38.62;99961.31;4245882;33;34684;-68
2023/05/31 06:14:13;;;;;;;8.57;3.85;;;;;;;25.72;38.49;99958.31;4245644;33;34697;-69
2023/05/31 06:16:42;;;;;;;7.72;3.62;;;;;;;25.70;38.43;99971.41;4245727;33;33708;-68
2023/05/31 06:19:11;;;;;;;7.00;3.53;;;;;;;25.69;38.30;99970.59;4245679;33;33432;-68
2023/05/31 06:21:39;;;;;;;8.88;3.85;;;;;;;25.70;38.11;99969.50;4245849;33;33940;-67
2023/05/31 06:24:07;;;;;;;6.72;3.62;;;;;;;25.69;37.97;99970.59;4245909;33;33933;-68
2023/05/31 06:26:36;;;;;;;11.32;3.78;;;;;;;25.69;37.95;99967.00;4245486;33;33842;-69
2023/05/31 06:29:03;;;;;;;5.95;3.55;;;;;;;25.69;37.91;99967.84;4245998;33;33772;-68
2023/05/31 06:31:35;;;;;;;8.20;3.70;;;;;;;25.68;37.88;99979.81;4259263;33;34899;-67
2023/05/31 06:34:03;;;;;;;7.62;4.00;;;;;;;25.68;37.79;99976.25;4259059;33;33501;-67
2023/05/31 06:36:31;;;;;;;5.85;3.28;;;;;;;25.68;37.67;99977.09;4259913;33;33796;-68
2023/05/31 06:38:59;;;;;;;7.93;3.53;;;;;;;25.68;37.75;99977.09;4259421;33;33870;-69
2023/05/31 06:41:29;;;;;;;9.95;3.70;;;;;;;25.66;37.67;99972.94;4255302;33;33766;-69
2023/05/31 06:43:58;;;;;;;8.65;3.80;;;;;;;25.67;37.59;99971.88;4245615;33;33720;-70
2023/05/31 06:46:30;;;;;;;6.80;3.78;;;;;;;25.67;37.58;99969.97;4245188;33;34259;-69
2023/05/31 06:48:58;;;;;;;5.32;3.28;;;;;;;25.67;37.57;99972.72;4255812;33;32314;-68
2023/05/31 06:51:39;;;;;;;7.50;3.92;;;;;;;25.67;37.55;99974.59;4259406;33;33044;-69
2023/05/31 06:54:09;;;;;;;6.25;3.42;;;;;;;25.67;37.53;99969.97;4258370;33;35054;-69
2023/05/31 06:56:36;;;;;;;7.32;4.20;;;;;;;25.68;37.56;99979.00;4259514;33;34935;-68
2023/05/31 06:59:04;;;;;;;7.12;3.87;;;;;;;25.68;37.49;99979.81;4259070;33;34053;-68
2023/05/31 07:01:32;;;;;;;6.57;3.87;;;;;;;25.68;37.37;99973.53;4259552;33;33653;-68
2023/05/31 07:03:59;;;;;;;6.72;3.53;;;;;;;25.68;37.24;99976.25;4259302;33;33782;-68
2023/05/31 07:06:28;;;;;;;7.95;3.87;;;;;;;25.68;37.15;99985.28;4259217;33;34917;-68
2023/05/31 07:08:55;;;;;;;8.65;4.07;;;;;;;25.69;37.30;99981.50;4246676;33;33563;-69
2023/05/31 07:11:24;;;;;;;8.63;3.40;;;;;;;25.69;37.31;99989.72;4259517;33;33709;-70
2023/05/31 07:13:54;;;;;;;8.30;3.55;;;;;;;25.70;37.35;99994.09;4259272;33;33926;-69
2023/05/31 07:16:21;;;;;;;5.57;3.20;;;;;;;25.72;37.28;99988.41;4259211;33;34949;-68
2023/05/31 07:18:49;;;;;;;6.40;3.58;;;;;;;25.75;37.08;99987.94;4259344;33;34205;-69
2023/05/31 07:21:18;;;;;;;5.95;3.25;;;;;;;25.75;37.05;99984.38;4259266;33;33709;-69
2023/05/31 07:23:45;;;;;;;7.57;3.85;;;;;;;25.77;36.85;99991.28;4259064;33;34363;-69
2023/05/31 07:26:14;;;;;;;7.18;3.70;;;;;;;25.78;36.53;99992.09;4253404;33;34278;-69
2023/05/31 07:28:45;;;;;;;10.30;3.97;;;;;;;25.80;36.13;99998.19;4251578;33;33441;-68
2023/05/31 07:31:13;;;;;;;10.38;3.90;;;;;;;25.79;36.06;99994.63;4258929;33;34713;-68
2023/05/31 07:33:40;;;;;;;13.60;4.55;;;;;;;25.79;36.21;99989.16;4258784;33;34854;-68
2023/05/31 07:36:08;;;;;;;8.13;3.80;;;;;;;25.81;35.98;99989.72;4258888;33;34886;-67
2023/05/31 07:38:35;;;;;;;9.02;3.72;;;;;;;25.81;36.08;99994.37;4258810;33;34844;-68
2023/05/31 07:41:03;;;;;;;7.15;3.47;;;;;;;25.81;35.99;99992.47;4258752;33;33575;-68
2023/05/31 07:43:32;;;;;;;7.07;3.62;;;;;;;25.82;35.88;99993.28;4258314;33;34100;-67
2023/05/31 07:45:59;;;;;;;10.10;4.10;;;;;;;25.84;35.55;99986.53;4259127;33;34798;-68
2023/05/31 07:48:28;;;;;;;8.43;4.15;;;;;;;25.85;35.33;99992.84;4260662;33;33711;-68
2023/05/31 07:50:56;;;;;;;6.77;3.80;;;;;;;25.85;35.45;99988.19;4248011;33;33646;-69
2023/05/31 07:53:23;;;;;;;10.40;4.32;;;;;;;25.86;35.25;99987.13;4260817;33;33417;-68
2023/05/31 07:55:51;;;;;;;6.87;3.60;;;;;;;25.86;35.33;99991.75;4260326;33;34727;-67
2023/05/31 07:58:19;;;;;;;8.07;4.30;;;;;;;25.85;35.50;99996.38;4260692;33;33546;-68
2023/05/31 08:00:47;;;;;;;6.97;3.78;;;;;;;25.87;35.53;99987.94;4260807;33;33793;-64
2023/05/31 08:03:15;;;;;;;9.13;4.07;;;;;;;25.86;35.69;99989.84;4267193;33;34704;-65
2023/05/31 08:05:42;;;;;;;9.18;3.92;;;;;;;25.86;35.98;99995.31;4260820;33;34053;-70
2023/05/31 08:08:10;;;;;;;8.60;4.03;;;;;;;25.86;36.13;99987.13;4260749;33;33153;-67
2023/05/31 08:10:38;;;;;;;6.60;3.45;;;;;;;25.87;36.19;99994.25;4248994;33;34017;-64
2023/05/31 08:13:05;;;;;;;5.90;3.08;;;;;;;25.88;36.25;99993.19;4247198;33;34038;-64
2023/05/31 08:15:33;;;;;;;5.80;3.35;;;;;;;25.88;36.28;99993.19;4259359;33;34139;-68
2023/05/31 08:18:01;;;;;;;9.15;3.55;;;;;;;25.89;36.31;99988.56;4259273;33;33710;-65
2023/05/31 08:20:29;;;;;;;9.43;3.83;;;;;;;25.90;36.34;99992.94;4252739;33;34363;-65
2023/05/31 08:22:58;;;;;;;6.05;3.80;;;;;;;25.90;36.37;99987.47;4260023;33;34911;-64
2023/05/31 08:25:26;;;;;;;8.23;4.12;;;;;;;25.90;36.39;99985.56;4270020;33;33884;-71
2023/05/31 08:27:54;;;;;;;7.65;3.72;;;;;;;25.92;36.41;99991.63;4261049;33;34559;-66
2023/05/31 08:30:22;;;;;;;7.12;3.25;;;;;;;25.92;36.42;99990.78;4256837;33;34052;-68
2023/05/31 08:32:49;;;;;;;5.82;3.45;;;;;;;25.93;36.40;99990.56;4260380;33;33776;-64
2023/05/31 08:35:17;;;;;;;6.12;3.28;;;;;;;25.93;36.37;99996.03;4259266;33;34156;-65
2023/05/31 08:37:45;;;;;;;6.32;3.58;;;;;;;25.94;36.36;99994.97;4260513;33;34121;-65
2023/05/31 08:40:16;;;;;;;8.15;3.67;;;;;;;25.94;36.37;99994.13;4260398;33;33941;-65
2023/05/31 08:42:56;;;;;;;6.15;3.50;;;;;;;25.94;36.43;99994.13;4260422;33;34083;-64
2023/05/31 08:45:28;;;;;;;6.28;3.40;;;;;;;25.94;36.41;99994.97;4247469;33;33611;-65
2023/05/31 08:48:21;;;;;;;8.57;3.42;;;;;;;25.94;36.35;99997.69;4259109;33;33439;-66
2023/05/31 08:50:48;;;;;;;8.68;3.90;;;;;;;25.98;36.33;99989.03;4260582;33;34988;-65
2023/05/31 08:53:20;;;;;;;7.57;4.18;;;;;;;25.96;36.28;99989.25;4236628;33;34762;-64
2023/05/31 08:55:48;;;;;;;8.85;3.70;;;;;;;25.94;36.32;99989.50;4258975;33;34819;-64
2023/05/31 08:58:16;;;;;;;7.20;3.90;;;;;;;25.95;36.25;99993.06;4258909;33;34281;-64
2023/05/31 09:00:43;;;;;;;6.50;3.70;;;;;;;25.96;36.20;99991.97;4260342;33;33639;-64
2023/05/31 09:03:11;;;;;;;7.65;3.70;;;;;;;25.99;36.17;99993.41;4260150;33;34711;-64
2023/05/31 09:05:39;;;;;;;7.75;3.55;;;;;;;25.98;36.25;99984.38;4258941;33;34927;-64
2023/05/31 09:08:07;;;;;;;6.87;3.53;;;;;;;25.97;36.33;99979.13;4259118;33;34458;-64
2023/05/31 09:10:35;;;;;;;8.38;4.10;;;;;;;25.98;36.48;99980.81;4247294;33;33540;-64
2023/05/31 09:13:03;;;;;;;7.18;3.28;;;;;;;25.98;36.47;99978.91;4260185;33;33555;-64
2023/05/31 09:15:30;;;;;;;6.93;4.10;;;;;;;25.99;36.44;99983.31;4260254;33;34154;-64
2023/05/31 09:18:04;;;;;;;8.65;3.70;;;;;;;25.98;36.46;99980.81;4247603;33;33695;-69
2023/05/31 09:20:34;;;;;;;7.93;4.12;;;;;;;25.99;36.53;99979.75;4236309;33;34674;-64
2023/05/31 09:23:03;;;;;;;10.68;3.90;;;;;;;25.99;36.59;99980.56;4260000;33;34046;-64
2023/05/31 09:25:47;;;;;;;7.45;4.10;;;;;;;25.99;36.62;99983.31;4260479;33;33862;-65
2023/05/31 09:28:17;;;;;;;8.27;3.85;;;;;;;26.01;36.60;99972.13;4260497;33;34451;-67
2023/05/31 09:30:44;;;;;;;7.12;3.65;;;;;;;25.98;36.63;99978.91;4260210;33;33789;-68
2023/05/31 09:33:15;;;;;;;8.43;3.80;;;;;;;26.00;36.57;99979.50;4247436;33;33820;-68
2023/05/31 09:35:58;;;;;;;8.25;3.50;;;;;;;25.98;36.58;99978.91;4257678;33;34202;-67
2023/05/31 09:38:33;;;;;;;7.22;3.90;;;;;;;26.01;36.56;99981.16;4254163;33;33629;-68
2023/05/31 09:41:20;;;;;;;7.60;3.40;;;;;;;26.01;36.57;99969.38;4249270;33;34411;-67
2023/05/31 09:43:48;;;;;;;8.90;3.70;;;;;;;26.03;36.61;99972.72;4260030;33;34074;-67
2023/05/31 09:46:20;;;;;;;7.87;3.65;;;;;;;26.00;36.60;99976.75;4260043;33;34380;-67
2023/05/31 09:49:03;;;;;;;9.13;3.90;;;;;;;26.00;36.59;99974.03;4260094;33;33222;-68
2023/05/31 09:51:34;;;;;;;8.70;3.62;;;;;;;26.02;36.43;99979.25;4259815;33;33847;-67
2023/05/31 09:54:10;;;;;;;6.93;3.65;;;;;;;26.01;36.46;99972.13;4247504;33;34013;-68
2023/05/31 09:56:38;;;;;;;9.43;4.00;;;;;;;26.01;36.48;99970.22;4260032;33;33889;-68
2023/05/31 09:59:06;;;;;;;6.78;3.40;;;;;;;26.02;36.52;99974.62;4259888;33;34551;-68
2023/05/31 10:01:33;;;;;;;7.60;4.10;;;;;;;26.02;36.43;99973.78;4259939;33;33881;-68
2023/05/31 10:04:03;;;;;;;7.65;3.50;;;;;;;26.03;36.45;99972.72;4259922;33;34012;-67
2023/05/31 10:06:35;;;;;;;6.63;3.60;;;;;;;26.02;36.46;99971.91;4260055;33;33951;-67
2023/05/31 10:09:04;;;;;;;9.20;3.90;;;;;;;26.04;36.43;99974.38;4258923;33;34337;-68
2023/05/31 10:11:34;;;;;;;8.75;4.00;;;;;;;26.03;36.41;99970.81;4259694;33;33904;-68
2023/05/31 10:14:03;;;;;;;9.63;4.57;;;;;;;26.03;36.40;99968.09;4247715;33;34971;-68
2023/05/31 10:16:35;;;;;;;7.82;3.85;;;;;;;26.04;36.35;99968.91;4258656;33;33956;-69
2023/05/31 10:19:06;;;;;;;8.10;4.30;;;;;;;26.07;36.50;99968.44;4233015;33;33837;-69
2023/05/31 10:21:34;;;;;;;9.68;4.12;;;;;;;26.05;36.73;99965.09;4259388;33;34815;-71
2023/05/31 10:24:12;;;;;;;8.65;4.12;;;;;;;26.05;36.74;99968.66;4247129;33;33975;-69
2023/05/31 10:26:46;;;;;;;9.52;4.62;;;;;;;26.04;36.77;99961.53;4258587;33;34838;-69
2023/05/31 10:29:18;;;;;;;9.23;3.70;;;;;;;26.04;36.85;99958.81;4258453;33;34457;-70
2023/05/31 10:31:49;;;;;;;7.32;3.60;;;;;;;26.04;36.87;99960.72;4246316;33;33538;-70
2023/05/31 10:34:24;;;;;;;8.82;4.12;;;;;;;26.06;36.87;99958.56;4258649;33;34988;-69
2023/05/31 10:36:52;;;;;;;6.80;3.75;;;;;;;26.06;36.90;99953.09;4259384;33;34108;-72
2023/05/31 10:39:47;;;;;;;7.55;3.80;;;;;;;26.04;36.95;99956.06;4259561;33;33811;-69
2023/05/31 10:42:33;;;;;;;7.10;3.65;;;;;;;26.05;36.97;99963.19;4258367;33;33569;-71
2023/05/31 10:45:50;;;;;;;8.07;3.95;;;;;;;26.07;36.99;99960.25;4246905;33;33632;-68
2023/05/31 10:48:20;;;;;;;7.22;3.95;;;;;;;26.06;37.08;99945.72;4222429;33;34672;-69
2023/05/31 10:50:55;;;;;;;6.82;4.35;;;;;;;26.07;37.08;99957.50;4214999;34;34003;-70
2023/05/31 10:53:43;;;;;;;9.00;4.12;;;;;;;26.05;37.12;99949.53;4239207;33;33861;-69
2023/05/31 10:56:13;;;;;;;7.28;3.60;;;;;;;26.06;37.21;99948.44;4248623;33;34169;-72
2023/05/31 10:58:53;;;;;;;6.72;3.87;;;;;;;26.06;37.29;99944.88;4259653;33;34327;-70
2023/05/31 11:01:21;;;;;;;9.68;4.43;;;;;;;26.05;37.27;99952.25;4259324;33;33711;-70
2023/05/31 11:03:53;;;;;;;6.18;4.03;;;;;;;26.04;37.23;99942.41;4259201;33;33922;-69
2023/05/31 11:06:28;;;;;;;7.82;4.15;;;;;;;26.05;37.24;99948.69;4259126;33;34677;-70
2023/05/31 11:08:57;;;;;;;7.75;4.00;;;;;;;26.07;37.35;99947.41;4257990;33;34070;-70
2023/05/31 11:11:25;;;;;;;7.90;4.07;;;;;;;26.07;37.40;99943.84;4259290;33;33600;-72
2023/05/31 11:14:07;;;;;;;6.05;3.80;;;;;;;26.07;37.36;99932.91;4259343;33;35129;-69
2023/05/31 11:16:46;;;;;;;8.88;4.47;;;;;;;26.08;37.37;99940.84;4259126;33;34731;-69
2023/05/31 11:19:16;;;;;;;8.27;4.10;;;;;;;26.06;37.29;99942.97;4259104;33;34911;-70
2023/05/31 11:21:45;;;;;;;6.78;4.32;;;;;;;26.06;37.29;99932.03;4260940;33;33242;-69
2023/05/31 11:24:28;;;;;;;6.87;3.75;;;;;;;26.07;37.30;99921.97;4259096;33;33803;-68
2023/05/31 11:26:58;;;;;;;6.47;4.05;;;;;;;26.08;37.35;99923.63;4259607;33;35854;-69
2023/05/31 11:29:48;;;;;;;9.63;4.00;;;;;;;26.06;37.35;99932.03;4261031;33;34205;-70
2023/05/31 11:32:17;;;;;;;8.00;4.45;;;;;;;26.09;37.27;99919.81;4260739;33;33424;-69
2023/05/31 11:35:06;;;;;;;7.12;4.35;;;;;;;26.08;37.31;99927.19;4260944;33;33769;-68
2023/05/31 11:37:35;;;;;;;9.50;4.25;;;;;;;26.10;37.33;99918.72;4259661;33;33708;-69
2023/05/31 11:40:07;;;;;;;7.90;4.20;;;;;;;26.09;37.33;99919.81;4260675;33;35132;-69
2023/05/31 11:42:36;;;;;;;8.35;4.40;;;;;;;26.08;37.46;99918.97;4259108;33;34741;-70
2023/05/31 11:45:15;;;;;;;7.03;3.72;;;;;;;26.07;37.54;99916.50;4259520;33;33725;-70
2023/05/31 11:48:00;;;;;;;8.65;4.10;;;;;;;26.08;37.53;99915.41;4260713;33;33633;-69